createdAt,value
2019-04-21T00:02:30.763Z,33.90
2019-04-21T00:05:16.477Z,33.70
2019-04-21T00:07:51.073Z,33.90
2019-04-21T00:10:26.936Z,35.75
2019-04-21T00:12:51.788Z,35.25
2019-04-21T00:15:20.211Z,36.28
2019-04-21T00:17:49.804Z,35.40
2019-04-21T00:20:28.929Z,36.88
2019-04-21T00:23:10.054Z,34.65
2019-04-21T00:25:40.614Z,34.70
2019-04-21T00:28:27.165Z,34.33
2019-04-21T00:30:50.508Z,34.98
2019-04-21T00:33:15.770Z,33.38
2019-04-21T00:35:51.128Z,33.35
2019-04-21T00:38:40.775Z,35.10
2019-04-21T00:41:13.472Z,36.70
2019-04-21T00:43:38.979Z,35.70
2019-04-21T00:46:04.818Z,34.15
2019-04-21T00:48:50.061Z,33.83
2019-04-21T00:51:34.367Z,34.43
2019-04-21T00:54:07.061Z,34.33
2019-04-21T00:56:34.406Z,36.77
2019-04-21T00:59:06.875Z,37.33
2019-04-21T01:01:39.177Z,37.40
2019-04-21T01:04:16.765Z,37.58
2019-04-21T01:06:48.084Z,35.35
2019-04-21T01:09:19.458Z,32.30
2019-04-21T01:11:56.364Z,31.57
2019-04-21T01:14:34.361Z,30.68
2019-04-21T01:17:04.001Z,30.48
2019-04-21T01:19:33.705Z,29.72
2019-04-21T01:21:49.325Z,31.07
2019-04-21T01:24:28.601Z,30.05
2019-04-21T01:27:04.536Z,30.05
2019-04-21T01:29:53.438Z,29.67
2019-04-21T01:32:23.692Z,29.50
2019-04-21T01:34:59.364Z,28.90
2019-04-21T01:37:35.755Z,28.03
2019-04-21T01:40:13.943Z,27.30
2019-04-21T01:42:43.588Z,29.40
2019-04-21T01:45:15.745Z,29.67
2019-04-21T01:47:47.781Z,29.90
2019-04-21T01:50:14.340Z,28.00
2019-04-21T01:52:57.460Z,26.52
2019-04-21T01:55:30.714Z,25.97
2019-04-21T01:58:02.084Z,26.20
2019-04-21T02:00:41.184Z,25.23
2019-04-21T02:03:37.475Z,25.23
2019-04-21T02:05:53.017Z,25.35
2019-04-21T02:08:25.942Z,26.07
2019-04-21T02:11:00.638Z,25.12
2019-04-21T02:13:28.258Z,24.00
2019-04-21T02:16:08.848Z,24.82
2019-04-21T02:18:39.012Z,24.93
2019-04-21T02:21:00.508Z,23.70
2019-04-21T02:23:55.835Z,23.45
2019-04-21T02:26:23.186Z,23.22
2019-04-21T02:29:01.869Z,23.12
2019-04-21T02:31:40.419Z,22.73
2019-04-21T02:34:11.245Z,23.75
2019-04-21T02:36:52.940Z,22.70
2019-04-21T02:42:05.413Z,21.65
2019-04-21T02:44:32.722Z,21.10
2019-04-21T02:46:46.385Z,22.15
2019-04-21T02:52:14.228Z,19.62
2019-04-21T02:57:15.830Z,18.40
2019-04-21T02:59:54.790Z,17.92
2019-04-21T03:02:25.735Z,17.27
2019-04-21T03:04:53.267Z,18.52
2019-04-21T03:07:36.637Z,17.32
2019-04-21T03:10:12.424Z,17.95
2019-04-21T03:12:56.899Z,17.85
2019-04-21T03:15:16.059Z,17.70
2019-04-21T03:17:54.871Z,16.73
2019-04-21T03:20:30.879Z,16.93
2019-04-21T03:22:53.522Z,17.45
2019-04-21T03:28:14.222Z,16.70
2019-04-21T03:33:53.227Z,17.02
2019-04-21T03:40:50.963Z,16.50
2019-04-21T03:43:34.566Z,17.07
2019-04-21T03:45:53.405Z,16.80
2019-04-21T03:48:35.670Z,17.60
2019-04-21T03:51:04.765Z,16.07
2019-04-21T03:56:25.416Z,15.58
2019-04-21T04:09:10.614Z,15.58
2019-04-21T04:16:57.217Z,15.50
2019-04-21T04:19:30.920Z,16.17
2019-04-21T04:21:59.108Z,15.93
2019-04-21T04:34:59.627Z,16.17
2019-04-21T04:39:50.059Z,16.27
2019-04-21T04:42:29.864Z,16.65
2019-04-21T04:45:08.162Z,18.25
2019-04-21T04:47:29.439Z,17.03
2019-04-21T04:50:08.232Z,17.75
2019-04-21T04:55:08.563Z,16.50
2019-04-21T05:00:28.711Z,17.05
2019-04-21T05:02:48.940Z,16.95
2019-04-21T05:05:36.361Z,17.15
2019-04-21T05:08:49.268Z,17.25
2019-04-21T05:10:54.453Z,16.90
2019-04-21T05:13:06.491Z,16.57
2019-04-21T05:15:38.253Z,18.17
2019-04-21T05:18:22.446Z,17.30
2019-04-21T05:20:52.288Z,17.85
2019-04-21T05:23:11.752Z,17.02
2019-04-21T05:25:43.194Z,18.27
2019-04-21T05:28:12.581Z,18.45
2019-04-21T05:31:03.767Z,17.85
2019-04-21T05:33:36.474Z,19.65
2019-04-21T05:36:09.436Z,18.27
2019-04-21T05:38:39.116Z,18.57
2019-04-21T05:41:06.770Z,18.02
2019-04-21T05:43:51.439Z,18.47
2019-04-21T05:46:25.182Z,18.87
2019-04-21T05:48:57.129Z,19.00
2019-04-21T05:51:31.727Z,20.92
2019-04-21T05:54:15.813Z,19.00
2019-04-21T05:56:46.567Z,19.45
2019-04-21T05:59:12.133Z,18.63
2019-04-21T06:01:46.364Z,18.92
2019-04-21T06:04:45.309Z,17.90
2019-04-21T06:07:02.227Z,18.50
2019-04-21T06:09:35.191Z,19.32
2019-04-21T06:12:03.177Z,17.50
2019-04-21T06:14:43.970Z,18.10
2019-04-21T06:17:19.226Z,17.85
2019-04-21T06:19:52.761Z,17.70
2019-04-21T06:22:21.242Z,18.27
2019-04-21T06:25:21.662Z,18.12
2019-04-21T06:27:34.382Z,17.98
2019-04-21T06:30:00.056Z,17.02
2019-04-21T06:35:19.724Z,17.17
2019-04-21T06:38:00.136Z,18.20
2019-04-21T06:40:23.066Z,18.10
2019-04-21T06:43:09.523Z,16.70
2019-04-21T06:45:32.131Z,16.70
2019-04-21T06:47:59.464Z,17.52
2019-04-21T06:50:29.955Z,16.50
2019-04-21T06:53:04.001Z,17.17
2019-04-21T06:55:37.920Z,17.37
2019-04-21T06:58:13.144Z,17.82
2019-04-21T07:00:41.347Z,17.27
2019-04-21T07:03:32.297Z,17.30
2019-04-21T07:05:58.954Z,17.52
2019-04-21T07:11:03.337Z,17.98
2019-04-21T07:13:32.225Z,20.97
2019-04-21T07:16:12.034Z,19.45
2019-04-21T07:18:44.080Z,19.82
2019-04-21T07:21:12.844Z,19.23
2019-04-21T07:23:53.784Z,19.05
2019-04-21T07:26:28.346Z,19.47
2019-04-21T07:29:01.814Z,19.48
2019-04-21T07:31:31.717Z,30.00
2019-04-21T07:34:07.611Z,27.32
2019-04-21T07:36:48.120Z,25.00
2019-04-21T07:39:06.020Z,23.52
2019-04-21T07:41:38.508Z,36.60
2019-04-21T07:44:09.220Z,19.02
2019-04-21T07:46:45.213Z,20.80
2019-04-21T07:49:27.142Z,20.57
2019-04-21T07:52:05.658Z,19.60
2019-04-21T07:54:49.267Z,27.10
2019-04-21T07:57:02.989Z,25.62
2019-04-21T08:00:04.109Z,23.98
2019-04-21T08:02:22.203Z,19.42
2019-04-21T08:07:31.770Z,26.60
2019-04-21T08:09:58.719Z,23.27
2019-04-21T08:12:29.910Z,22.82
2019-04-21T08:15:15.538Z,18.17
2019-04-21T08:17:42.594Z,22.75
2019-04-21T08:20:13.785Z,22.52
2019-04-21T08:25:20.129Z,19.57
2019-04-21T08:30:32.071Z,18.95
2019-04-21T08:33:08.722Z,17.87
2019-04-21T08:38:08.859Z,55.98
2019-04-21T08:40:45.738Z,22.93
2019-04-21T08:43:21.408Z,23.75
2019-04-21T08:46:06.717Z,18.90
2019-04-21T08:48:22.815Z,19.23
2019-04-21T08:51:06.077Z,18.43
2019-04-21T08:53:35.767Z,18.17
2019-04-21T08:56:09.982Z,17.10
2019-04-21T08:58:45.896Z,28.15
2019-04-21T09:01:17.612Z,31.90
2019-04-21T09:03:53.936Z,21.55
2019-04-21T09:08:58.641Z,28.12
2019-04-21T09:11:29.561Z,25.97
2019-04-21T09:14:02.971Z,29.80
2019-04-21T09:16:33.859Z,21.60
2019-04-21T09:19:05.859Z,18.57
2019-04-21T09:21:45.436Z,18.73
2019-04-21T09:24:19.378Z,18.02
2019-04-21T09:26:55.981Z,18.17
2019-04-21T09:29:19.497Z,18.93
2019-04-21T09:31:43.563Z,20.12
2019-04-21T09:34:22.353Z,33.58
2019-04-21T09:36:52.996Z,21.68
2019-04-21T09:39:24.491Z,22.32
2019-04-21T09:41:59.129Z,23.90
2019-04-21T09:44:33.283Z,22.62
2019-04-21T09:47:04.917Z,27.90
2019-04-21T09:49:37.593Z,18.98
2019-04-21T09:52:18.507Z,18.40
2019-04-21T09:54:52.040Z,18.67
2019-04-21T09:57:28.314Z,17.67
2019-04-21T10:00:04.011Z,18.37
2019-04-21T10:02:36.568Z,17.75
2019-04-21T10:04:59.528Z,17.60
2019-04-21T10:07:37.247Z,18.82
2019-04-21T10:10:08.196Z,17.60
2019-04-21T10:12:41.086Z,17.27
2019-04-21T10:15:14.176Z,20.68
2019-04-21T10:17:47.741Z,25.08
2019-04-21T10:20:20.260Z,20.05
2019-04-21T10:22:53.114Z,22.80
2019-04-21T10:25:25.495Z,17.77
2019-04-21T10:28:17.053Z,18.07
2019-04-21T10:30:50.866Z,17.70
2019-04-21T10:33:24.344Z,18.20
2019-04-21T10:35:57.075Z,17.92
2019-04-21T10:38:36.780Z,18.95
2019-04-21T10:41:03.548Z,28.20
2019-04-21T10:43:35.735Z,26.65
2019-04-21T10:46:08.756Z,23.40
2019-04-21T10:48:41.121Z,21.55
2019-04-21T10:51:13.442Z,19.67
2019-04-21T10:53:50.867Z,25.20
2019-04-21T10:56:29.030Z,25.08
2019-04-21T10:58:56.174Z,21.25
2019-04-21T11:01:29.383Z,20.43
2019-04-21T11:04:06.772Z,20.85
2019-04-21T11:06:36.946Z,22.67
2019-04-21T11:09:10.720Z,43.25
2019-04-21T11:11:45.118Z,23.75
2019-04-21T11:14:17.770Z,22.48
2019-04-21T11:16:52.853Z,20.70
2019-04-21T11:19:24.257Z,21.20
2019-04-21T11:21:57.021Z,25.27
2019-04-21T11:24:29.198Z,24.92
2019-04-21T11:27:01.824Z,27.17
2019-04-21T11:29:35.056Z,23.25
2019-04-21T11:32:07.296Z,20.30
2019-04-21T11:34:39.391Z,19.92
2019-04-21T11:37:14.264Z,26.68
2019-04-21T11:39:55.340Z,26.03
2019-04-21T11:42:21.725Z,30.50
2019-04-21T11:44:55.319Z,27.42
2019-04-21T11:47:30.258Z,25.67
2019-04-21T11:50:05.272Z,23.50
2019-04-21T11:52:38.853Z,25.10
2019-04-21T11:55:11.172Z,24.43
2019-04-21T11:57:46.881Z,23.65
2019-04-21T12:00:17.659Z,24.80
2019-04-21T12:02:51.114Z,24.37
2019-04-21T12:05:25.499Z,25.37
2019-04-21T12:07:58.469Z,30.50
2019-04-21T12:10:31.488Z,36.25
2019-04-21T12:13:07.393Z,35.13
2019-04-21T12:15:38.935Z,28.57
2019-04-21T12:18:12.122Z,37.85
2019-04-21T12:20:45.155Z,32.03
2019-04-21T12:23:18.392Z,33.00
2019-04-21T12:25:51.654Z,28.90
2019-04-21T12:28:23.997Z,28.90
2019-04-21T12:30:57.760Z,26.75
2019-04-21T12:33:32.065Z,25.92
2019-04-21T12:36:04.472Z,25.40
2019-04-21T12:38:44.599Z,26.70
2019-04-21T12:41:10.729Z,26.80
2019-04-21T12:43:42.982Z,25.60
2019-04-21T12:46:15.946Z,26.30
2019-04-21T12:48:49.603Z,25.48
2019-04-21T12:51:22.106Z,25.12
2019-04-21T12:53:54.564Z,43.23
2019-04-21T12:56:27.519Z,28.27
2019-04-21T12:58:59.714Z,29.27
2019-04-21T13:01:32.772Z,28.35
2019-04-21T13:04:05.906Z,27.62
2019-04-21T13:06:39.430Z,27.65
2019-04-21T13:09:16.035Z,28.27
2019-04-21T13:11:44.984Z,31.42
2019-04-21T13:14:17.824Z,27.87
2019-04-21T13:16:50.154Z,26.40
2019-04-21T13:19:23.084Z,25.95
2019-04-21T13:21:56.069Z,26.50
2019-04-21T13:24:29.592Z,26.68
2019-04-21T13:27:03.537Z,25.40
2019-04-21T13:29:36.423Z,25.77
2019-04-21T13:32:10.285Z,25.57
2019-04-21T13:34:42.468Z,26.30
2019-04-21T13:37:15.253Z,25.62
2019-04-21T13:40:14.691Z,25.70
2019-04-21T13:42:31.512Z,25.88
2019-04-21T13:44:59.227Z,26.33
2019-04-21T13:47:32.377Z,25.87
2019-04-21T13:50:05.311Z,26.43
2019-04-21T13:52:40.771Z,26.20
2019-04-21T13:55:19.260Z,26.13
2019-04-21T13:57:52.447Z,30.60
2019-04-21T14:00:24.782Z,30.92
2019-04-21T14:02:58.616Z,46.70
2019-04-21T14:05:30.675Z,29.60
2019-04-21T14:08:03.135Z,33.67
2019-04-21T14:10:35.666Z,32.48
2019-04-21T14:13:08.644Z,31.60
2019-04-21T14:15:42.349Z,30.20
2019-04-21T14:18:15.573Z,31.77
2019-04-21T14:20:49.139Z,31.55
2019-04-21T14:23:31.747Z,31.77
2019-04-21T14:25:55.617Z,34.03
2019-04-21T14:28:28.221Z,34.40
2019-04-21T14:31:02.121Z,34.95
2019-04-21T14:33:34.465Z,34.48
2019-04-21T14:36:06.708Z,36.50
2019-04-21T14:38:40.651Z,36.40
2019-04-21T14:41:12.822Z,38.38
2019-04-21T14:43:45.931Z,41.05
2019-04-21T14:46:19.521Z,42.15
2019-04-21T14:48:53.106Z,42.85
2019-04-21T14:51:27.100Z,41.70
2019-04-21T14:54:01.748Z,41.58
2019-04-21T14:56:35.583Z,40.67
2019-04-21T14:59:08.996Z,40.58
2019-04-21T15:01:44.122Z,42.03
2019-04-21T15:04:17.628Z,42.30
2019-04-21T15:06:49.817Z,43.58
2019-04-21T15:09:22.973Z,45.48
2019-04-21T15:11:56.132Z,45.10
2019-04-21T15:14:29.665Z,46.83
2019-04-21T15:17:02.955Z,45.30
2019-04-21T15:19:35.899Z,44.48
2019-04-21T15:22:08.391Z,44.00
2019-04-21T15:24:40.777Z,44.42
2019-04-21T15:27:13.056Z,43.43
2019-04-21T15:29:46.840Z,43.05
2019-04-21T15:32:19.407Z,42.17
2019-04-21T15:34:52.077Z,44.60
2019-04-21T15:37:24.313Z,44.15
2019-04-21T15:39:58.482Z,43.78
2019-04-21T15:42:32.522Z,39.85
2019-04-21T15:45:06.376Z,39.40
2019-04-21T15:47:39.998Z,43.55
2019-04-21T15:50:16.351Z,43.30
2019-04-21T15:52:47.656Z,42.70
2019-04-21T15:55:21.093Z,37.90
2019-04-21T15:57:56.453Z,33.00
2019-04-21T16:00:30.987Z,32.38
2019-04-21T16:03:04.527Z,32.23
2019-04-21T16:05:37.122Z,32.20
2019-04-21T16:08:10.143Z,32.10
2019-04-21T16:10:50.141Z,40.25
2019-04-21T16:13:16.684Z,32.55
2019-04-21T16:15:50.456Z,28.20
2019-04-21T16:18:22.692Z,27.62
2019-04-21T16:20:55.785Z,28.07
2019-04-21T16:23:28.702Z,37.78
2019-04-21T16:26:02.441Z,38.20
2019-04-21T16:28:35.169Z,30.25
2019-04-21T16:31:07.348Z,28.40
2019-04-21T16:33:40.965Z,26.65
2019-04-21T16:36:14.750Z,35.60
2019-04-21T16:38:47.267Z,27.20
2019-04-21T16:41:20.315Z,31.82
2019-04-21T16:43:53.238Z,26.45
2019-04-21T16:46:25.487Z,26.07
2019-04-21T16:48:57.846Z,25.55
2019-04-21T16:51:29.891Z,26.37
2019-04-21T16:54:03.978Z,25.40
2019-04-21T16:56:37.529Z,32.28
2019-04-21T16:59:12.269Z,30.85
2019-04-21T17:01:44.730Z,39.13
2019-04-21T17:04:18.246Z,27.30
2019-04-21T17:06:51.307Z,24.67
2019-04-21T17:09:23.672Z,25.02
2019-04-21T17:11:59.848Z,25.30
2019-04-21T17:14:46.199Z,25.20
2019-04-21T17:17:27.171Z,28.40
2019-04-21T17:19:43.822Z,32.60
2019-04-21T17:22:13.470Z,25.57
2019-04-21T17:24:46.509Z,25.65
2019-04-21T17:27:18.662Z,27.17
2019-04-21T17:29:52.617Z,26.65
2019-04-21T17:32:31.389Z,34.70
2019-04-21T17:34:58.036Z,35.92
2019-04-21T17:37:32.436Z,31.52
2019-04-21T17:40:06.640Z,27.87
2019-04-21T17:42:46.510Z,27.40
2019-04-21T17:45:13.082Z,27.37
2019-04-21T17:47:52.451Z,27.80
2019-04-21T17:50:21.020Z,27.82
2019-04-21T17:53:00.832Z,39.27
2019-04-21T17:55:35.087Z,41.15
2019-04-21T17:58:17.166Z,29.67
2019-04-21T18:03:56.876Z,28.10
2019-04-21T18:05:59.441Z,28.62
2019-04-21T18:08:40.533Z,28.55
2019-04-21T18:11:02.074Z,28.17
2019-04-21T18:13:26.855Z,28.35
2019-04-21T18:16:12.396Z,28.77
2019-04-21T18:18:32.958Z,30.68
2019-04-21T18:21:07.026Z,29.05
2019-04-21T18:23:52.058Z,29.23
2019-04-21T18:26:27.135Z,28.57
2019-04-21T18:28:48.620Z,28.38
2019-04-21T18:31:22.628Z,28.98
2019-04-21T18:34:03.487Z,28.38
2019-04-21T18:36:34.891Z,42.03
2019-04-21T18:39:26.488Z,44.43
2019-04-21T18:42:02.796Z,38.25
2019-04-21T18:44:44.362Z,38.00
2019-04-21T18:47:09.682Z,28.95
2019-04-21T18:49:26.858Z,27.45
2019-04-21T18:52:08.072Z,29.55
2019-04-21T18:54:51.492Z,29.95
2019-04-21T18:57:20.443Z,31.77
2019-04-21T18:59:49.170Z,31.82
2019-04-21T19:02:19.022Z,31.12
2019-04-21T19:04:53.608Z,31.62
2019-04-21T19:07:37.476Z,31.55
2019-04-21T19:10:23.742Z,31.10
2019-04-21T19:13:20.314Z,30.40
2019-04-21T19:15:19.971Z,29.60
2019-04-21T19:18:27.776Z,31.65
2019-04-21T19:20:32.907Z,31.02
2019-04-21T19:23:00.310Z,31.37
2019-04-21T19:25:31.476Z,29.63
2019-04-21T19:28:06.421Z,30.63
2019-04-21T19:30:50.855Z,30.15
2019-04-21T19:33:18.716Z,30.50
2019-04-21T19:35:35.324Z,29.50
2019-04-21T19:38:10.883Z,30.52
2019-04-21T19:41:00.218Z,30.60
2019-04-21T19:43:35.470Z,35.48
2019-04-21T19:46:06.898Z,32.65
2019-04-21T19:48:47.481Z,32.58
2019-04-21T19:51:10.837Z,30.05
2019-04-21T19:53:41.694Z,29.90
2019-04-21T19:56:03.790Z,29.65
2019-04-21T19:58:38.936Z,29.60
2019-04-21T20:01:09.708Z,29.72
2019-04-21T20:03:43.168Z,36.88
2019-04-21T20:06:33.154Z,32.93
2019-04-21T20:09:08.333Z,31.90
2019-04-21T20:11:38.766Z,35.50
2019-04-21T20:14:42.906Z,26.42
2019-04-21T20:16:45.559Z,29.92
2019-04-21T20:19:09.516Z,27.87
2019-04-21T20:21:38.817Z,32.75
2019-04-21T20:24:15.037Z,22.82
2019-04-21T20:26:54.532Z,22.00
2019-04-21T20:29:40.622Z,29.00
2019-04-21T20:32:19.109Z,28.77
2019-04-21T20:34:45.866Z,25.57
2019-04-21T20:37:14.722Z,21.10
2019-04-21T20:39:45.531Z,21.90
2019-04-21T20:42:21.118Z,21.77
2019-04-21T20:45:13.077Z,21.30
2019-04-21T20:47:23.268Z,21.70
2019-04-21T20:49:59.857Z,21.48
2019-04-21T20:52:41.841Z,21.93
2019-04-21T20:55:05.853Z,21.23
2019-04-21T20:57:41.062Z,22.45
2019-04-21T21:00:21.751Z,22.07
2019-04-21T21:02:57.239Z,21.77
2019-04-21T21:05:23.345Z,23.55
2019-04-21T21:08:09.212Z,23.22
2019-04-21T21:10:34.709Z,24.33
2019-04-21T21:13:14.786Z,22.17
2019-04-21T21:15:41.307Z,22.17
2019-04-21T21:18:26.176Z,20.62
2019-04-21T21:20:52.939Z,21.40
2019-04-21T21:23:14.564Z,21.52
2019-04-21T21:25:54.391Z,22.60
2019-04-21T21:28:26.724Z,21.37
2019-04-21T21:31:05.952Z,21.85
2019-04-21T21:33:39.949Z,20.70
2019-04-21T21:36:13.959Z,21.52
2019-04-21T21:38:42.890Z,21.42
2019-04-21T21:41:11.922Z,22.48
2019-04-21T21:43:34.549Z,21.93
2019-04-21T21:46:24.983Z,22.13
2019-04-21T21:48:53.980Z,21.83
2019-04-21T21:51:22.879Z,21.40
2019-04-21T21:53:48.557Z,22.02
2019-04-21T21:56:21.011Z,24.43
2019-04-21T21:58:53.860Z,24.23
2019-04-21T22:01:31.816Z,24.05
2019-04-21T22:04:09.237Z,23.90
2019-04-21T22:06:42.169Z,23.52
2019-04-21T22:09:10.597Z,23.42
2019-04-21T22:11:44.413Z,23.40
2019-04-21T22:14:24.987Z,24.80
2019-04-21T22:17:07.642Z,23.67
2019-04-21T22:19:45.565Z,27.67
2019-04-21T22:22:14.072Z,26.30
2019-04-21T22:24:46.683Z,25.82
2019-04-21T22:27:05.391Z,25.20
2019-04-21T22:29:41.726Z,24.97
2019-04-21T22:32:17.473Z,25.80
2019-04-21T22:34:52.385Z,24.87
2019-04-21T22:37:30.871Z,24.72
2019-04-21T22:40:04.478Z,27.75
2019-04-21T22:42:29.413Z,26.30
2019-04-21T22:44:59.117Z,24.90
2019-04-21T22:47:34.547Z,26.40
2019-04-21T22:50:06.389Z,26.07
2019-04-21T22:52:39.369Z,26.42
2019-04-21T22:55:19.257Z,26.68
2019-04-21T22:57:49.763Z,26.40
2019-04-21T23:00:20.458Z,28.47
2019-04-21T23:03:03.180Z,26.93
2019-04-21T23:05:33.010Z,27.30
2019-04-21T23:08:04.872Z,27.22
2019-04-21T23:10:35.029Z,27.60
2019-04-21T23:13:12.264Z,28.57
2019-04-21T23:15:47.089Z,29.65
2019-04-21T23:18:30.546Z,29.82
2019-04-21T23:21:09.399Z,30.80
2019-04-21T23:23:44.089Z,33.60
2019-04-21T23:26:20.983Z,35.40
2019-04-21T23:28:54.057Z,30.68
2019-04-21T23:31:27.576Z,29.33
2019-04-21T23:33:36.898Z,35.93
2019-04-21T23:36:15.644Z,30.25
2019-04-21T23:38:46.225Z,29.48
2019-04-21T23:41:17.376Z,27.55
2019-04-21T23:43:53.160Z,26.80
2019-04-21T23:46:28.240Z,26.55
2019-04-21T23:49:13.950Z,25.15
2019-04-21T23:51:39.723Z,26.82
2019-04-21T23:54:03.482Z,26.50
2019-04-21T23:56:39.499Z,26.70
2019-04-21T23:59:11.563Z,27.65
